createdAt,value
2022-11-24T00:00:45.277Z,10.45
2022-11-24T00:01:48.132Z,10.45
2022-11-24T00:02:51.307Z,10.45
2022-11-24T00:03:54.210Z,10.45
2022-11-24T00:04:56.843Z,10.45
2022-11-24T00:05:59.463Z,10.45
2022-11-24T00:07:02.106Z,10.43
2022-11-24T00:08:04.741Z,10.42
2022-11-24T00:09:07.345Z,10.42
2022-11-24T00:10:10.045Z,10.4
2022-11-24T00:11:12.680Z,10.39
2022-11-24T00:12:15.327Z,10.38
2022-11-24T00:13:17.993Z,10.37
2022-11-24T00:14:20.609Z,10.38
2022-11-24T00:15:23.207Z,10.39
2022-11-24T00:16:26.173Z,10.38
2022-11-24T00:17:28.831Z,10.38
2022-11-24T00:18:31.472Z,10.37
2022-11-24T00:19:34.094Z,10.38
2022-11-24T00:20:36.705Z,10.38
2022-11-24T00:21:39.390Z,10.39
2022-11-24T00:22:42.035Z,10.39
2022-11-24T00:23:44.673Z,10.39
2022-11-24T00:24:47.318Z,10.37
2022-11-24T00:25:50.091Z,10.37
2022-11-24T00:26:52.684Z,10.37
2022-11-24T00:27:55.337Z,10.36
2022-11-24T00:28:58.030Z,10.36
2022-11-24T00:30:00.656Z,10.36
2022-11-24T00:31:03.582Z,10.35
2022-11-24T00:32:06.347Z,10.33
2022-11-24T00:33:08.963Z,10.32
2022-11-24T00:34:12.146Z,10.31
2022-11-24T00:35:14.773Z,10.29
2022-11-24T00:36:17.441Z,10.25
2022-11-24T00:37:20.068Z,10.22
2022-11-24T00:38:22.724Z,10.22
2022-11-24T00:39:25.355Z,10.2
2022-11-24T00:40:35.321Z,10.17
2022-11-24T00:41:37.677Z,10.16
2022-11-24T00:42:40.269Z,10.16
2022-11-24T00:43:42.860Z,10.17
2022-11-24T00:44:45.517Z,10.15
2022-11-24T00:45:48.573Z,10.14
2022-11-24T00:46:51.730Z,10.13
2022-11-24T00:47:54.675Z,10.14
2022-11-24T00:48:57.295Z,10.14
2022-11-24T00:49:59.904Z,10.14
2022-11-24T00:51:02.521Z,10.14
2022-11-24T00:52:05.152Z,10.13
2022-11-24T00:53:07.852Z,10.14
2022-11-24T00:54:10.404Z,10.14
2022-11-24T00:55:13.018Z,10.14
2022-11-24T00:56:15.656Z,10.16
2022-11-24T00:57:18.360Z,10.16
2022-11-24T00:58:21.001Z,10.15
2022-11-24T00:59:23.651Z,10.15
2022-11-24T01:00:26.300Z,10.15
2022-11-24T01:01:29.350Z,10.16
2022-11-24T01:02:32.297Z,10.18
2022-11-24T01:03:35.010Z,10.19
2022-11-24T01:04:37.851Z,10.2
2022-11-24T01:05:40.451Z,10.2
2022-11-24T01:06:43.074Z,10.21
2022-11-24T01:07:45.829Z,10.23
2022-11-24T01:08:48.544Z,10.23
2022-11-24T01:09:51.182Z,10.23
2022-11-24T01:10:53.807Z,10.23
2022-11-24T01:11:56.410Z,10.25
2022-11-24T01:12:59.140Z,10.25
2022-11-24T01:14:01.737Z,10.25
2022-11-24T01:15:04.400Z,10.27
2022-11-24T01:16:07.294Z,10.27
2022-11-24T01:17:10.317Z,10.27
2022-11-24T01:18:12.894Z,10.26
2022-11-24T01:19:15.586Z,10.23
2022-11-24T01:20:18.226Z,10.22
2022-11-24T01:21:20.843Z,10.22
2022-11-24T01:22:23.478Z,10.24
2022-11-24T01:23:26.084Z,10.23
2022-11-24T01:24:28.698Z,10.23
2022-11-24T01:25:31.335Z,10.21
2022-11-24T01:26:33.979Z,10.2
2022-11-24T01:27:36.575Z,10.2
2022-11-24T01:28:47.990Z,10.22
2022-11-24T01:29:50.305Z,10.24
2022-11-24T01:30:53.117Z,10.25
2022-11-24T01:31:55.860Z,10.27
2022-11-24T01:32:58.476Z,10.27
2022-11-24T01:34:01.112Z,10.27
2022-11-24T01:35:03.765Z,10.29
2022-11-24T01:36:06.369Z,10.28
2022-11-24T01:37:08.983Z,10.29
2022-11-24T01:38:11.816Z,10.28
2022-11-24T01:39:14.498Z,10.25
2022-11-24T01:40:17.103Z,10.23
2022-11-24T01:41:20.345Z,10.23
2022-11-24T01:42:22.931Z,10.23
2022-11-24T01:43:25.538Z,10.24
2022-11-24T01:44:28.267Z,10.22
2022-11-24T01:45:30.875Z,10.21
2022-11-24T01:46:33.842Z,10.21
2022-11-24T01:47:37.024Z,10.22
2022-11-24T01:48:39.821Z,10.18
2022-11-24T01:49:42.452Z,10.16
2022-11-24T01:50:45.053Z,10.16
2022-11-24T01:51:47.701Z,10.15
2022-11-24T01:52:53.835Z,10.12
2022-11-24T01:53:59.731Z,10.09
2022-11-24T01:55:02.074Z,10.08
2022-11-24T01:56:04.688Z,10.07
2022-11-24T01:57:07.323Z,10.06
2022-11-24T01:58:09.976Z,10.07
2022-11-24T01:59:12.557Z,10.06
2022-11-24T02:00:15.265Z,10.06
2022-11-24T02:01:18.039Z,10.05
2022-11-24T02:02:20.891Z,10.03
2022-11-24T02:03:23.641Z,10.01
2022-11-24T02:04:26.247Z,9.98
2022-11-24T02:05:28.862Z,9.98
2022-11-24T02:06:31.521Z,9.95
2022-11-24T02:07:34.354Z,9.94
2022-11-24T02:08:36.971Z,9.91
2022-11-24T02:09:39.557Z,9.89
2022-11-24T02:10:43.711Z,9.87
2022-11-24T02:11:46.256Z,9.87
2022-11-24T02:12:48.908Z,9.86
2022-11-24T02:13:51.555Z,9.81
2022-11-24T02:14:54.162Z,9.82
2022-11-24T02:15:57.101Z,9.81
2022-11-24T02:16:59.796Z,9.8
2022-11-24T02:18:02.444Z,9.78
2022-11-24T02:19:05.082Z,9.77
2022-11-24T02:20:07.705Z,9.74
2022-11-24T02:21:10.304Z,9.76
2022-11-24T02:22:12.929Z,9.73
2022-11-24T02:23:15.568Z,9.7
2022-11-24T02:24:18.186Z,9.67
2022-11-24T02:25:20.811Z,9.63
2022-11-24T02:26:23.441Z,9.62
2022-11-24T02:27:26.064Z,9.63
2022-11-24T02:28:28.683Z,9.63
2022-11-24T02:29:31.338Z,9.64
2022-11-24T02:30:33.977Z,9.65
2022-11-24T02:31:36.838Z,9.64
2022-11-24T02:32:39.552Z,9.64
2022-11-24T02:33:42.143Z,9.63
2022-11-24T02:34:44.804Z,9.64
2022-11-24T02:35:47.411Z,9.63
2022-11-24T02:36:50.065Z,9.62
2022-11-24T02:37:52.859Z,9.63
2022-11-24T02:38:55.481Z,9.62
2022-11-24T02:39:58.114Z,9.61
2022-11-24T02:41:00.722Z,9.59
2022-11-24T02:42:03.309Z,9.62
2022-11-24T02:43:05.982Z,9.64
2022-11-24T02:44:08.572Z,9.65
2022-11-24T02:45:11.175Z,9.66
2022-11-24T02:46:14.011Z,9.66
2022-11-24T02:47:16.781Z,9.66
2022-11-24T02:48:19.398Z,9.65
2022-11-24T02:49:22.166Z,9.65
2022-11-24T02:50:24.795Z,9.67
2022-11-24T02:51:27.410Z,9.67
2022-11-24T02:52:30.019Z,9.67
2022-11-24T02:53:32.647Z,9.67
2022-11-24T02:54:36.713Z,9.67
2022-11-24T02:55:39.806Z,9.66
2022-11-24T02:56:42.447Z,9.67
2022-11-24T02:57:45.005Z,9.68
2022-11-24T02:58:47.621Z,9.68
2022-11-24T02:59:50.241Z,9.69
2022-11-24T03:00:53.043Z,9.71
2022-11-24T03:01:55.823Z,9.71
2022-11-24T03:02:58.748Z,9.74
2022-11-24T03:04:01.456Z,9.74
2022-11-24T03:05:04.040Z,9.75
2022-11-24T03:06:06.872Z,9.72
2022-11-24T03:07:09.723Z,9.76
2022-11-24T03:08:12.460Z,9.8
2022-11-24T03:09:15.073Z,9.82
2022-11-24T03:10:17.696Z,9.81
2022-11-24T03:11:20.324Z,9.81
2022-11-24T03:12:22.926Z,9.82
2022-11-24T03:13:25.504Z,9.83
2022-11-24T03:14:28.122Z,9.83
2022-11-24T03:15:30.996Z,9.84
2022-11-24T03:16:33.768Z,9.88
2022-11-24T03:17:36.411Z,9.9
2022-11-24T03:18:39.101Z,9.91
2022-11-24T03:19:41.686Z,9.92
2022-11-24T03:20:44.317Z,9.92
2022-11-24T03:21:46.998Z,9.94
2022-11-24T03:22:49.617Z,9.93
2022-11-24T03:23:52.258Z,9.93
2022-11-24T03:24:54.887Z,9.97
2022-11-24T03:25:57.493Z,9.98
2022-11-24T03:27:00.174Z,9.99
2022-11-24T03:28:02.812Z,10.02
2022-11-24T03:29:05.437Z,10.02
2022-11-24T03:30:08.047Z,10.02
2022-11-24T03:31:10.843Z,10.02
2022-11-24T03:32:13.550Z,10.02
2022-11-24T03:33:16.167Z,10.02
2022-11-24T03:34:18.840Z,10.04
2022-11-24T03:35:21.476Z,10.05
2022-11-24T03:36:24.114Z,10.07
2022-11-24T03:37:26.785Z,10.11
2022-11-24T03:38:29.405Z,10.1
2022-11-24T03:39:31.999Z,10.11
2022-11-24T03:40:34.645Z,10.12
2022-11-24T03:41:37.296Z,10.11
2022-11-24T03:42:39.905Z,10.11
2022-11-24T03:43:44.609Z,10.1
2022-11-24T03:44:47.084Z,10.12
2022-11-24T03:45:49.686Z,10.13
2022-11-24T03:46:52.350Z,10.16
2022-11-24T03:47:54.990Z,10.17
2022-11-24T03:48:57.573Z,10.19
2022-11-24T03:50:00.332Z,10.2
2022-11-24T03:51:02.915Z,10.18
2022-11-24T03:52:08.647Z,10.15
2022-11-24T03:53:11.073Z,10.15
2022-11-24T03:54:13.763Z,10.15
2022-11-24T03:55:26.440Z,10.15
2022-11-24T03:56:28.641Z,10.15
2022-11-24T03:57:31.228Z,10.14
2022-11-24T03:58:33.820Z,10.13
2022-11-24T03:59:36.451Z,10.13
2022-11-24T04:00:39.059Z,10.12
2022-11-24T04:01:41.865Z,10.11
2022-11-24T04:02:44.857Z,10.1
2022-11-24T04:03:47.558Z,10.12
2022-11-24T04:04:50.176Z,10.11
2022-11-24T04:05:52.878Z,10.11
2022-11-24T04:06:55.466Z,10.09
2022-11-24T04:07:58.165Z,10.08
2022-11-24T04:09:00.963Z,10.06
2022-11-24T04:10:03.576Z,10.05
2022-11-24T04:11:06.216Z,10.01
2022-11-24T04:12:08.816Z,10
2022-11-24T04:13:11.418Z,9.99
2022-11-24T04:14:14.202Z,9.99
2022-11-24T04:15:16.778Z,10.02
2022-11-24T04:16:19.601Z,10.03
2022-11-24T04:17:22.296Z,10.05
2022-11-24T04:18:24.934Z,10.05
2022-11-24T04:19:28.112Z,10.08
2022-11-24T04:20:30.834Z,10.07
2022-11-24T04:21:33.527Z,10.06
2022-11-24T04:22:36.082Z,10.03
2022-11-24T04:23:38.695Z,10.03
2022-11-24T04:24:41.349Z,10.01
2022-11-24T04:25:44.049Z,9.99
2022-11-24T04:26:46.635Z,9.97
2022-11-24T04:27:49.266Z,9.96
2022-11-24T04:28:51.887Z,9.93
2022-11-24T04:29:54.516Z,9.92
2022-11-24T04:30:57.257Z,9.91
2022-11-24T04:31:59.931Z,9.89
2022-11-24T04:33:02.564Z,9.88
2022-11-24T04:34:05.188Z,9.84
2022-11-24T04:35:07.814Z,9.83
2022-11-24T04:36:10.422Z,9.8
2022-11-24T04:37:13.226Z,9.76
2022-11-24T04:39:20.596Z,9.71
2022-11-24T04:39:37.649Z,9.71
2022-11-24T04:40:40.229Z,9.71
2022-11-24T04:41:42.801Z,9.71
2022-11-24T04:42:45.428Z,9.7
2022-11-24T04:43:48.042Z,9.69
2022-11-24T04:44:50.681Z,9.68
2022-11-24T04:45:53.303Z,9.69
2022-11-24T04:46:56.225Z,9.71
2022-11-24T04:47:58.874Z,9.71
2022-11-24T04:49:01.487Z,9.72
2022-11-24T04:50:04.107Z,9.71
2022-11-24T04:51:06.749Z,9.71
2022-11-24T04:52:09.409Z,9.72
2022-11-24T04:53:12.085Z,9.7
2022-11-24T04:54:14.691Z,9.71
2022-11-24T04:55:17.306Z,9.72
2022-11-24T04:56:19.928Z,9.7
2022-11-24T04:57:22.583Z,9.7
2022-11-24T04:58:25.196Z,9.68
2022-11-24T04:59:27.822Z,9.68
2022-11-24T05:00:30.447Z,9.67
2022-11-24T05:01:33.145Z,9.66
2022-11-24T05:02:35.907Z,9.67
2022-11-24T05:03:38.445Z,9.68
2022-11-24T05:04:41.318Z,9.68
2022-11-24T05:05:44.018Z,9.68
2022-11-24T05:06:46.620Z,9.71
2022-11-24T05:07:49.401Z,9.73
2022-11-24T05:08:52.194Z,9.71
2022-11-24T05:09:59.960Z,9.71
2022-11-24T05:11:02.216Z,9.72
2022-11-24T05:12:04.848Z,9.72
2022-11-24T05:13:07.485Z,9.75
2022-11-24T05:14:10.107Z,9.72
2022-11-24T05:15:12.740Z,9.73
2022-11-24T05:16:15.709Z,9.73
2022-11-24T05:17:18.574Z,9.72
2022-11-24T05:18:21.226Z,9.72
2022-11-24T05:19:32.600Z,9.71
2022-11-24T05:20:34.924Z,9.7
2022-11-24T05:21:37.551Z,9.71
2022-11-24T05:22:40.134Z,9.75
2022-11-24T05:23:52.764Z,9.75
2022-11-24T05:24:55.077Z,9.78
2022-11-24T05:25:57.701Z,9.79
2022-11-24T05:27:00.343Z,9.81
2022-11-24T05:28:02.984Z,9.83
2022-11-24T05:29:05.623Z,9.84
2022-11-24T05:30:08.275Z,9.84
2022-11-24T05:31:11.053Z,9.87
2022-11-24T05:32:13.721Z,9.88
2022-11-24T05:33:16.474Z,9.88
2022-11-24T05:34:19.105Z,9.9
2022-11-24T05:35:21.691Z,9.92
2022-11-24T05:36:24.335Z,9.93
2022-11-24T05:37:26.962Z,9.94
2022-11-24T05:38:29.670Z,9.94
2022-11-24T05:39:32.312Z,9.94
2022-11-24T05:40:35.066Z,9.95
2022-11-24T05:41:37.628Z,9.97
2022-11-24T05:42:48.449Z,9.97
2022-11-24T05:43:50.743Z,9.97
2022-11-24T05:44:53.348Z,9.97
2022-11-24T05:45:56.009Z,9.97
2022-11-24T05:46:58.849Z,9.98
2022-11-24T05:48:01.573Z,9.98
2022-11-24T05:49:04.194Z,9.98
2022-11-24T05:50:06.868Z,10
2022-11-24T05:51:09.819Z,10
2022-11-24T05:52:12.477Z,10.02
2022-11-24T05:53:15.342Z,10.02
2022-11-24T05:54:17.953Z,10.01
2022-11-24T05:55:20.623Z,10.02
2022-11-24T05:56:23.373Z,10.02
2022-11-24T05:57:26.031Z,10.01
2022-11-24T05:58:28.875Z,10.01
2022-11-24T05:59:32.208Z,10
2022-11-24T06:00:37.586Z,9.99
2022-11-24T06:01:40.592Z,9.98
2022-11-24T06:02:43.824Z,9.96
2022-11-24T06:03:46.583Z,9.93
2022-11-24T06:04:49.207Z,9.92
2022-11-24T06:05:53.587Z,9.92
2022-11-24T06:06:57.661Z,9.93
2022-11-24T06:08:00.126Z,9.89
2022-11-24T06:09:02.779Z,9.89
2022-11-24T06:10:05.410Z,9.9
2022-11-24T06:11:08.005Z,9.89
2022-11-24T06:12:10.739Z,9.9
2022-11-24T06:13:13.892Z,9.88
2022-11-24T06:14:17.002Z,9.88
2022-11-24T06:15:19.681Z,9.85
2022-11-24T06:16:22.545Z,9.84
2022-11-24T06:17:25.297Z,9.82
2022-11-24T06:18:27.895Z,9.82
2022-11-24T06:19:30.531Z,9.82
2022-11-24T06:20:33.477Z,9.82
2022-11-24T06:21:36.059Z,9.82
2022-11-24T06:22:38.685Z,9.84
2022-11-24T06:23:41.308Z,9.83
2022-11-24T06:24:43.937Z,9.83
2022-11-24T06:25:51.892Z,9.81
2022-11-24T06:26:54.217Z,9.8
2022-11-24T06:27:56.944Z,9.82
2022-11-24T06:28:59.593Z,9.83
2022-11-24T06:30:02.206Z,9.82
2022-11-24T06:31:04.844Z,9.82
2022-11-24T06:32:07.857Z,9.82
2022-11-24T06:33:10.634Z,9.81
2022-11-24T06:34:13.281Z,9.82
2022-11-24T06:35:15.965Z,9.82
2022-11-24T06:36:18.586Z,9.8
2022-11-24T06:37:21.240Z,9.81
2022-11-24T06:38:24.668Z,9.81
2022-11-24T06:39:27.235Z,9.83
2022-11-24T06:40:29.829Z,9.82
2022-11-24T06:41:32.514Z,9.82
2022-11-24T06:42:35.145Z,9.83
2022-11-24T06:43:37.883Z,9.82
2022-11-24T06:44:40.508Z,9.82
2022-11-24T06:45:43.243Z,9.81
2022-11-24T06:46:46.055Z,9.83
2022-11-24T06:47:48.694Z,9.84
2022-11-24T06:48:51.313Z,9.85
2022-11-24T06:49:53.982Z,9.85
2022-11-24T06:50:56.641Z,9.85
2022-11-24T06:51:59.302Z,9.86
2022-11-24T06:53:01.897Z,9.85
2022-11-24T06:54:04.518Z,9.85
2022-11-24T06:55:07.182Z,9.86
2022-11-24T06:56:17.046Z,9.85
2022-11-24T06:57:19.419Z,9.86
2022-11-24T06:58:22.063Z,9.86
2022-11-24T06:59:24.779Z,9.86
2022-11-24T07:00:27.438Z,9.87
2022-11-24T07:01:30.164Z,9.85
2022-11-24T07:02:46.420Z,9.83
2022-11-24T07:03:48.651Z,9.83
2022-11-24T07:04:51.197Z,9.84
2022-11-24T07:05:53.794Z,9.85
2022-11-24T07:06:56.442Z,9.85
2022-11-24T07:07:59.078Z,9.82
2022-11-24T07:09:01.723Z,9.82
2022-11-24T07:10:04.412Z,9.81
2022-11-24T07:11:14.575Z,9.82
2022-11-24T07:12:18.812Z,9.82
2022-11-24T07:13:21.344Z,9.82
2022-11-24T07:14:23.936Z,9.81
2022-11-24T07:15:26.653Z,9.82
2022-11-24T07:16:29.584Z,9.84
2022-11-24T07:17:32.350Z,9.85
2022-11-24T07:18:35.014Z,9.85
2022-11-24T07:19:37.680Z,9.82
2022-11-24T07:20:40.297Z,9.81
2022-11-24T07:21:42.939Z,9.81
2022-11-24T07:22:45.575Z,9.83
2022-11-24T07:23:48.199Z,9.83
2022-11-24T07:24:50.810Z,9.85
2022-11-24T07:25:53.420Z,9.85
2022-11-24T07:26:56.093Z,9.85
2022-11-24T07:27:58.754Z,9.86
2022-11-24T07:29:01.355Z,9.85
2022-11-24T07:30:03.984Z,9.84
2022-11-24T07:31:06.695Z,9.84
2022-11-24T07:32:09.560Z,9.85
2022-11-24T07:33:12.866Z,9.85
2022-11-24T07:34:15.510Z,9.87
2022-11-24T07:35:18.128Z,9.89
2022-11-24T07:36:20.767Z,9.9
2022-11-24T07:37:32.101Z,9.91
2022-11-24T07:38:34.344Z,9.91
2022-11-24T07:39:36.988Z,9.91
2022-11-24T07:40:39.612Z,9.91
2022-11-24T07:41:42.262Z,9.92
2022-11-24T07:42:44.913Z,9.9
2022-11-24T07:43:48.189Z,9.87
2022-11-24T07:44:50.793Z,9.85
2022-11-24T07:45:53.616Z,9.84
2022-11-24T07:46:56.455Z,9.85
2022-11-24T07:47:59.093Z,9.82
2022-11-24T07:49:01.763Z,9.79
2022-11-24T07:50:04.389Z,9.77
2022-11-24T07:51:07.031Z,9.78
2022-11-24T07:52:09.695Z,9.79
2022-11-24T07:53:12.370Z,9.77
2022-11-24T07:54:16.515Z,9.78
2022-11-24T07:55:19.074Z,9.76
2022-11-24T07:56:21.688Z,9.75
2022-11-24T07:57:24.845Z,9.75
2022-11-24T07:58:33.526Z,9.75
2022-11-24T07:59:35.819Z,9.74
2022-11-24T08:00:38.465Z,9.76
2022-11-24T08:01:41.436Z,9.76
2022-11-24T08:02:44.731Z,9.77
2022-11-24T08:03:47.767Z,9.77
2022-11-24T08:04:50.539Z,9.78
2022-11-24T08:07:15.209Z,9.72
2022-11-24T08:08:17.860Z,9.72
2022-11-24T08:09:20.485Z,9.74
2022-11-24T08:10:23.671Z,9.7
2022-11-24T08:11:26.273Z,9.71
2022-11-24T08:12:28.901Z,9.72
2022-11-24T08:13:31.526Z,9.72
2022-11-24T08:14:37.692Z,9.72
2022-11-24T08:15:40.105Z,9.74
2022-11-24T08:16:43.040Z,9.76
2022-11-24T08:17:45.762Z,9.79
2022-11-24T08:18:48.488Z,9.78
2022-11-24T08:19:51.120Z,9.72
2022-11-24T08:20:53.785Z,9.73
2022-11-24T08:21:56.526Z,9.75
2022-11-24T08:22:59.698Z,9.77
2022-11-24T08:24:02.299Z,9.8
2022-11-24T08:25:04.974Z,9.85
2022-11-24T08:26:07.632Z,9.87
2022-11-24T08:27:10.312Z,9.87
2022-11-24T08:28:12.937Z,9.87
2022-11-24T08:29:15.590Z,9.87
2022-11-24T08:30:18.584Z,9.88
2022-11-24T08:31:21.540Z,9.9
2022-11-24T08:32:24.527Z,9.9
2022-11-24T08:33:27.266Z,9.92
2022-11-24T08:34:29.982Z,9.92
2022-11-24T08:35:32.588Z,9.93
2022-11-24T08:36:35.281Z,9.94
2022-11-24T08:37:37.990Z,9.95
2022-11-24T08:38:44.190Z,9.98
2022-11-24T08:39:46.608Z,10.01
2022-11-24T08:40:49.215Z,10.03
2022-11-24T08:41:51.887Z,10.05
2022-11-24T08:42:54.544Z,10.1
2022-11-24T08:43:57.185Z,10.11
2022-11-24T08:45:20.226Z,10.15
2022-11-24T08:46:22.063Z,10.16
2022-11-24T08:47:24.808Z,10.19
2022-11-24T08:48:27.433Z,10.23
2022-11-24T08:49:30.165Z,10.24
2022-11-24T08:50:32.892Z,10.28
2022-11-24T08:51:35.800Z,10.28
2022-11-24T08:52:38.629Z,10.3
2022-11-24T08:53:41.266Z,10.3
2022-11-24T08:54:43.988Z,10.34
2022-11-24T08:55:46.620Z,10.35
2022-11-24T08:56:49.333Z,10.36
2022-11-24T08:57:51.998Z,10.37
2022-11-24T08:58:54.943Z,10.37
2022-11-24T08:59:57.923Z,10.4
2022-11-24T09:01:00.877Z,10.43
2022-11-24T09:02:03.776Z,10.45
2022-11-24T09:03:06.571Z,10.47
2022-11-24T09:04:09.466Z,10.49
2022-11-24T09:05:49.941Z,10.54
2022-11-24T09:06:34.290Z,10.55
2022-11-24T09:07:37.543Z,10.58
2022-11-24T09:08:40.258Z,10.59
2022-11-24T09:09:42.922Z,10.6
2022-11-24T09:10:45.575Z,10.65
2022-11-24T09:11:48.215Z,10.71
2022-11-24T09:12:50.916Z,10.77
2022-11-24T09:13:53.546Z,10.86
2022-11-24T09:14:56.160Z,10.9
2022-11-24T09:15:59.036Z,10.92
2022-11-24T09:17:01.904Z,10.85
2022-11-24T09:18:04.622Z,10.83
2022-11-24T09:19:07.277Z,10.88
2022-11-24T09:20:09.909Z,10.93
2022-11-24T09:21:12.581Z,10.98
2022-11-24T09:22:15.316Z,10.97
2022-11-24T09:23:17.913Z,10.93
2022-11-24T09:24:20.565Z,10.9
2022-11-24T09:25:23.282Z,10.91
2022-11-24T09:26:25.917Z,10.93
2022-11-24T09:27:28.663Z,11
2022-11-24T09:28:31.361Z,11.05
2022-11-24T09:29:34.655Z,11.09
2022-11-24T09:30:37.903Z,11.13
2022-11-24T09:31:40.587Z,11.18
2022-11-24T09:32:43.233Z,11.22
2022-11-24T09:33:45.921Z,11.27
2022-11-24T09:34:48.581Z,11.33
2022-11-24T09:35:51.221Z,11.42
2022-11-24T09:36:53.903Z,11.5
2022-11-24T09:37:56.576Z,11.56
2022-11-24T09:38:59.346Z,11.69
2022-11-24T09:40:02.459Z,11.9
2022-11-24T09:41:05.145Z,12
2022-11-24T09:42:07.824Z,12.01
2022-11-24T09:43:10.473Z,12.01
2022-11-24T09:44:13.134Z,12.2
2022-11-24T09:45:15.810Z,12.41
2022-11-24T09:46:19.249Z,12.5
2022-11-24T09:47:22.238Z,12.51
2022-11-24T09:48:24.818Z,12.58
2022-11-24T09:49:27.424Z,12.58
2022-11-24T09:50:30.106Z,12.52
2022-11-24T09:51:33.380Z,12.42
2022-11-24T09:52:46.083Z,12.4
2022-11-24T09:53:48.435Z,12.36
2022-11-24T09:54:51.241Z,12.29
2022-11-24T09:55:53.866Z,12.24
2022-11-24T09:56:56.496Z,12.16
2022-11-24T09:57:59.227Z,12.14
2022-11-24T09:59:01.873Z,12.13
2022-11-24T10:00:04.516Z,12.06
2022-11-24T10:01:07.346Z,12
2022-11-24T10:02:10.175Z,11.92
2022-11-24T10:03:12.852Z,11.91
2022-11-24T10:04:15.891Z,11.92
2022-11-24T10:05:18.568Z,11.93
2022-11-24T10:06:21.430Z,11.94
2022-11-24T10:07:24.417Z,11.93
2022-11-24T10:08:27.070Z,11.89
2022-11-24T10:09:29.797Z,11.89
2022-11-24T10:10:32.449Z,11.83
2022-11-24T10:11:35.040Z,11.82
2022-11-24T10:12:37.841Z,11.82
2022-11-24T10:13:40.571Z,11.82
2022-11-24T10:14:43.189Z,11.78
2022-11-24T10:15:46.275Z,11.82
2022-11-24T10:16:51.597Z,11.78
2022-11-24T10:17:54.082Z,11.79
2022-11-24T10:18:56.719Z,11.84
2022-11-24T10:19:59.383Z,11.92
2022-11-24T10:21:03.097Z,12
2022-11-24T10:22:05.706Z,12.05
2022-11-24T10:23:08.437Z,12.11
2022-11-24T10:24:11.081Z,12.18
2022-11-24T10:25:13.844Z,12.18
2022-11-24T10:26:16.488Z,12.17
2022-11-24T10:27:19.147Z,12.2
2022-11-24T10:28:21.876Z,12.21
2022-11-24T10:29:24.505Z,12.26
2022-11-24T10:30:27.183Z,12.27
2022-11-24T10:31:30.121Z,12.21
2022-11-24T10:32:32.878Z,12.16
2022-11-24T10:33:35.568Z,12.14
2022-11-24T10:34:38.186Z,12.17
2022-11-24T10:35:50.837Z,12.22
2022-11-24T10:36:53.087Z,12.25
2022-11-24T10:37:55.712Z,12.26
2022-11-24T10:38:58.345Z,12.25
2022-11-24T10:40:01.095Z,12.27
2022-11-24T10:41:03.850Z,12.3
2022-11-24T10:42:06.510Z,12.33
2022-11-24T10:43:09.178Z,12.34
2022-11-24T10:44:11.844Z,12.29
2022-11-24T10:45:14.496Z,12.25
2022-11-24T10:46:17.510Z,12.24
2022-11-24T10:47:20.670Z,12.15
2022-11-24T10:48:23.291Z,12.03
2022-11-24T10:49:25.881Z,12.03
2022-11-24T10:50:28.534Z,12.05
2022-11-24T10:51:31.565Z,12.04
2022-11-24T10:52:34.384Z,12.05
2022-11-24T10:53:37.049Z,12.07
2022-11-24T10:54:41.680Z,12.08
2022-11-24T10:55:44.128Z,12.12
2022-11-24T10:56:46.887Z,12.17
2022-11-24T10:57:49.581Z,12.22
2022-11-24T10:58:53.081Z,12.18
2022-11-24T10:59:55.748Z,12.18
2022-11-24T11:00:59.169Z,12.18
2022-11-24T11:02:02.686Z,12.18
2022-11-24T11:03:05.630Z,12.21
2022-11-24T11:04:08.663Z,12.24
2022-11-24T11:05:11.340Z,12.25
2022-11-24T11:06:13.952Z,12.23
2022-11-24T11:07:19.411Z,12.21
2022-11-24T11:08:22.098Z,12.21
2022-11-24T11:09:24.919Z,12.22
2022-11-24T11:10:27.568Z,12.28
2022-11-24T11:11:30.714Z,12.34
2022-11-24T11:12:44.842Z,12.36
2022-11-24T11:13:47.773Z,12.38
2022-11-24T11:14:50.366Z,12.4
2022-11-24T11:15:53.260Z,12.41
2022-11-24T11:16:55.996Z,12.4
2022-11-24T11:17:59.540Z,12.39
2022-11-24T11:19:02.163Z,12.38
2022-11-24T11:20:05.791Z,12.38
2022-11-24T11:21:08.969Z,12.35
2022-11-24T11:22:11.728Z,12.36
2022-11-24T11:23:14.465Z,12.37
2022-11-24T11:24:17.113Z,12.34
2022-11-24T11:25:19.767Z,12.31
2022-11-24T11:26:22.484Z,12.3
2022-11-24T11:27:25.135Z,12.22
2022-11-24T11:28:27.918Z,12.19
2022-11-24T11:31:20.207Z,12.19
2022-11-24T11:34:58.259Z,12.29
2022-11-24T11:36:00.862Z,12.32
2022-11-24T11:37:03.414Z,12.33
2022-11-24T11:38:06.081Z,12.34
2022-11-24T11:39:09.031Z,12.36
2022-11-24T11:40:14.423Z,12.37
2022-11-24T11:41:16.920Z,12.41
2022-11-24T11:43:00.552Z,12.34
2022-11-24T11:43:41.585Z,12.32
2022-11-24T11:44:44.193Z,12.32
2022-11-24T11:45:47.042Z,12.35
2022-11-24T11:46:49.940Z,12.33
2022-11-24T11:47:52.797Z,12.34
2022-11-24T11:48:55.665Z,12.31
2022-11-24T11:49:58.566Z,12.3
2022-11-24T11:51:26.577Z,12.29
2022-11-24T11:52:23.056Z,12.3
2022-11-24T11:53:25.637Z,12.31
2022-11-24T11:54:28.249Z,12.33
2022-11-24T11:55:30.924Z,12.35
2022-11-24T11:56:33.607Z,12.38
2022-11-24T11:57:36.271Z,12.37
2022-11-24T11:58:39.169Z,12.39
2022-11-24T11:59:42.006Z,12.39
2022-11-24T12:00:44.647Z,12.4
2022-11-24T12:01:47.328Z,12.42
2022-11-24T12:02:54.513Z,12.41
2022-11-24T12:03:57.650Z,12.4
2022-11-24T12:05:00.620Z,12.41
2022-11-24T12:06:03.291Z,12.42
2022-11-24T12:07:06.194Z,12.42
2022-11-24T12:08:20.611Z,12.41
2022-11-24T12:09:27.362Z,12.37
2022-11-24T12:10:28.953Z,12.37
2022-11-24T12:11:35.221Z,12.36
2022-11-24T12:12:37.869Z,12.34
2022-11-24T12:13:41.056Z,12.33
2022-11-24T12:14:43.719Z,12.33
2022-11-24T12:15:46.577Z,12.33
2022-11-24T12:16:49.340Z,12.34
2022-11-24T12:17:51.994Z,12.36
2022-11-24T12:18:59.473Z,12.38
2022-11-24T12:20:01.953Z,12.39
2022-11-24T12:21:04.559Z,12.39
2022-11-24T12:22:07.444Z,12.4
2022-11-24T12:23:14.072Z,12.4
2022-11-24T12:24:16.662Z,12.41
2022-11-24T12:25:19.681Z,12.45
2022-11-24T12:26:22.307Z,12.5
2022-11-24T12:27:24.990Z,12.53
2022-11-24T12:28:27.720Z,12.55
2022-11-24T12:29:30.586Z,12.56
2022-11-24T12:30:33.308Z,12.57
2022-11-24T12:31:36.301Z,12.58
2022-11-24T12:32:38.997Z,12.57
2022-11-24T12:33:54.216Z,12.59
2022-11-24T12:35:02.398Z,12.58
2022-11-24T12:36:05.133Z,12.58
2022-11-24T12:37:07.812Z,12.56
2022-11-24T12:38:10.463Z,12.55
2022-11-24T12:39:13.172Z,12.56
2022-11-24T12:40:15.874Z,12.54
2022-11-24T12:41:43.949Z,12.52
2022-11-24T12:42:40.913Z,12.51
2022-11-24T12:43:43.477Z,12.51
2022-11-24T12:44:46.126Z,12.49
2022-11-24T12:45:48.866Z,12.49
2022-11-24T12:46:51.725Z,12.48
2022-11-24T12:47:54.478Z,12.47
2022-11-24T12:48:58.120Z,12.48
2022-11-24T12:50:00.772Z,12.45
2022-11-24T12:51:03.474Z,12.41
2022-11-24T12:52:06.155Z,12.39
2022-11-24T12:53:08.805Z,12.38
2022-11-24T12:54:11.468Z,12.34
2022-11-24T12:55:14.105Z,12.34
2022-11-24T12:56:16.708Z,12.32
2022-11-24T12:57:19.411Z,12.3
2022-11-24T12:58:22.125Z,12.31
2022-11-24T12:59:24.811Z,12.31
2022-11-24T13:00:27.528Z,12.29
2022-11-24T13:01:30.398Z,12.27
2022-11-24T13:02:33.755Z,12.26
2022-11-24T13:03:36.714Z,12.25
2022-11-24T13:04:39.318Z,12.22
2022-11-24T13:05:41.984Z,12.21
2022-11-24T13:06:49.937Z,12.21
2022-11-24T13:07:52.505Z,12.21
2022-11-24T13:09:05.256Z,12.19
2022-11-24T13:10:07.494Z,12.2
2022-11-24T13:11:10.114Z,12.19
2022-11-24T13:12:12.775Z,12.17
2022-11-24T13:13:15.422Z,12.14
2022-11-24T13:14:18.072Z,12.14
2022-11-24T13:15:45.438Z,12.13
2022-11-24T13:18:13.194Z,12.18
2022-11-24T13:19:15.544Z,12.2
2022-11-24T13:20:18.135Z,12.18
2022-11-24T13:21:20.759Z,12.18
2022-11-24T13:22:23.559Z,12.2
2022-11-24T13:23:26.451Z,12.19
2022-11-24T13:24:29.184Z,12.16
2022-11-24T13:25:32.403Z,12.18
2022-11-24T13:26:42.602Z,12.18
2022-11-24T13:27:44.853Z,12.19
2022-11-24T13:29:03.461Z,12.18
2022-11-24T13:30:10.153Z,12.15
2022-11-24T13:31:12.855Z,12.15
2022-11-24T13:32:15.707Z,12.14
2022-11-24T13:33:27.261Z,12.12
2022-11-24T13:34:29.815Z,12.13
2022-11-24T13:35:32.452Z,12.12
2022-11-24T13:36:35.355Z,12.14
2022-11-24T13:37:38.007Z,12.15
2022-11-24T13:38:40.627Z,12.16
2022-11-24T13:39:50.891Z,12.18
2022-11-24T13:41:21.142Z,12.2
2022-11-24T13:42:43.208Z,12.26
2022-11-24T13:43:37.006Z,12.29
2022-11-24T13:44:39.537Z,12.33
2022-11-24T13:45:42.277Z,12.36
2022-11-24T13:46:45.063Z,12.42
2022-11-24T13:47:47.762Z,12.48
2022-11-24T13:48:50.449Z,12.5
2022-11-24T13:49:53.527Z,12.55
2022-11-24T13:50:56.322Z,12.56
2022-11-24T13:51:58.986Z,12.57
2022-11-24T13:53:01.657Z,12.56
2022-11-24T13:54:04.327Z,12.55
2022-11-24T13:55:11.965Z,12.51
2022-11-24T13:56:14.599Z,12.5